Chennai International Airport
VOMM : now visible

Airfield :











YOU CAN JOIN US ON...

 
LOGIN :

Register | Disclaimer

   EN    FR    IT 

 









Legend :    VFR   Marginal VFR   IFR   Intensive IFR   Very Intensive IFR
Visi :
Ceiling :
>= 8 km
>= 3000ft
5 to 8 km
1000 to 3000 ft
1500m to 5 km
500 to 1000 ft
800 to 1500m
200 to 500 ft
< 800m
< 200 ft
Symbols :   Thunderstorms  Fog  Heavy snow  Heavy precipitations  Wind > 20 kt






- Airport Elevation : 52 ft
- IATA code : MAA


VOMM - Chennai International

CURRENT METAR :
  • 150130Z 00000KT 2000 BR FEW020 FEW025CB SCT100 24/22 Q1014 NOSIG

EXPIRED METARs :
  • 150100Z 00000KT 2000 BR FEW020 FEW025CB SCT100 23/22 Q1014 NOSIG
  • 150030Z 00000KT 2000 BR FEW020 FEW025CB SCT100 23/22 Q1014 NOSIG
  • 150000Z 00000KT 2000 BR FEW020 SCT100 23/22 Q1014 NOSIG
  • 142330Z 00000KT 2000 BR FEW020 SCT100 23/22 Q1013 NOSIG
  • 142300Z 00000KT 3000 BR FEW020 SCT100 23/22 Q1013 BECMG 2000 BR

TAF TAF VOMM
Valid from the 15 at 00:00 until the 16 at 06:00 UTC


142300Z 1500/1606 VRB02KT 3000 -RA/BR SCT018 BKN080
TEMPO 1500/1503 1500 RA/BR
BECMG 1506/1507 05010KT 5000 -DZ/BR
BECMG 1515/1516 VRB02KT 3000 -RA/BR
TEMPO 1518/1524 SCT018 FEW025TCU/CB BKN100
TEMPO 1600/1603 1500 RA/BR
BECMG 1604/1605 05010KT 5000 BR



MET'MAP, your aeronautical weather chart ! - Copyright ORBIFLY December 2007 - Disclaimer

ORBIFLY MET'MAP TEAM :

Programming & Development : Alexandra Zaïnal
Concept & original design : Baudouin d'Aumeries
Assistance for programming : Marc-Olivier Méhu
Technical & hardware support : Manuel Goepfert

Contact : metmap@orbifly.com




SOURCES & CREDITS :

   NOAA       Earth
Advisory